Time;durP1;ratioP1;P1;durP2;ratioP2;P2;SDS_P1;SDS_P2;PMS_P1;PMS_P2;Temp;Humidity;BMP_temperature;BMP_pressure;BME280_temperature;BME280_humidity;BME280_pressure;Samples;Min_cycle;Max_cycle;Signal;HPM_P1;HPM_P2
2022/06/17 00:01:38;;;;;;;5.70;2.67;;;23.90;99.90;;;;;;5042039;28;20176;-85
2022/06/17 00:04:04;;;;;;;6.83;3.37;;;23.80;99.90;;;;;;5058864;28;20164;-86
2022/06/17 00:06:36;;;;;;;8.80;3.50;;;23.80;99.90;;;;;;5059585;28;20176;-86
2022/06/17 00:09:04;;;;;;;3.77;2.60;;;23.70;99.90;;;;;;5042118;28;20192;-88
2022/06/17 00:11:36;;;;;;;5.60;2.73;;;23.80;1.00;;;;;;5049047;28;20577;-88
2022/06/17 00:14:09;;;;;;;5.97;2.93;;;23.80;1.00;;;;;;5032263;28;20204;-86
2022/06/17 00:16:35;;;;;;;4.73;2.87;;;23.80;1.00;;;;;;5064804;28;20204;-91
2022/06/17 00:19:01;;;;;;;4.30;2.57;;;23.80;1.00;;;;;;5065687;28;20176;-92
2022/06/17 00:21:32;;;;;;;7.20;2.90;;;23.60;1.00;;;;;;5048146;28;20176;-92
2022/06/17 00:24:00;;;;;;;6.77;2.77;;;23.60;1.00;;;;;;5048082;28;20187;-92
2022/06/17 00:26:26;;;;;;;6.63;2.97;;;23.60;51.10;;;;;;5060278;28;20161;-86
2022/06/17 00:28:52;;;;;;;4.20;2.87;;;23.60;99.90;;;;;;5040559;28;20177;-85
2022/06/17 00:31:19;;;;;;;5.97;2.40;;;23.60;99.90;;;;;;5023242;28;20226;-83
2022/06/17 00:33:45;;;;;;;5.10;2.33;;;23.50;92.60;;;;;;5041240;28;20179;-85
2022/06/17 00:36:17;;;;;;;5.60;2.60;;;23.50;99.90;;;;;;5061393;28;20307;-87
2022/06/17 00:38:44;;;;;;;4.70;2.43;;;23.50;1.00;;;;;;5040900;28;20168;-86
2022/06/17 00:41:27;;;;;;;4.73;2.53;;;23.50;43.50;;;;;;5043219;28;20179;-89
2022/06/17 00:43:53;;;;;;;3.90;2.40;;;23.40;1.00;;;;;;5043944;28;20265;-87
2022/06/17 00:46:38;;;;;;;3.57;2.60;;;23.40;99.90;;;;;;5040958;28;20193;-91
2022/06/17 00:49:16;;;;;;;3.77;2.57;;;23.40;1.00;;;;;;5066094;28;20211;-91
2022/06/17 00:52:04;;;;;;;6.20;3.00;;;23.20;99.90;;;;;;5049434;28;20658;-89
2022/06/17 00:54:29;;;;;;;6.57;2.87;;;23.20;99.90;;;;;;5052121;28;20180;-90
2022/06/17 00:56:56;;;;;;;5.20;2.90;;;23.30;99.90;;;;;;5054996;28;20222;-91
2022/06/17 00:59:23;;;;;;;6.07;2.97;;;23.30;1.00;;;;;;5058135;28;20176;-84
2022/06/17 01:02:03;;;;;;;4.73;2.80;;;23.20;1.00;;;;;;5054505;28;20699;-91
2022/06/17 01:04:33;;;;;;;5.43;2.30;;;23.00;99.90;;;;;;5052200;28;20172;-88
2022/06/17 01:07:21;;;;;;;6.77;2.90;;;23.00;99.90;;;;;;5032108;28;20181;-84
2022/06/17 01:09:57;;;;;;;5.97;2.83;;;22.80;99.90;;;;;;5046023;28;20190;-85
2022/06/17 01:12:27;;;;;;;4.63;2.70;;;22.80;23.60;;;;;;5043113;28;20171;-87
2022/06/17 01:14:55;;;;;;;5.33;2.67;;;22.80;1.00;;;;;;5040747;28;20168;-84
2022/06/17 01:17:35;;;;;;;4.63;2.93;;;22.90;99.90;;;;;;5039903;28;20230;-84
2022/06/17 01:20:13;;;;;;;5.83;2.30;;;23.00;99.90;;;;;;5057330;28;20155;-84
2022/06/17 01:22:52;;;;;;;4.83;2.90;;;23.10;1.00;;;;;;5040386;28;20172;-84
2022/06/17 01:25:22;;;;;;;4.37;3.03;;;23.10;21.80;;;;;;5038784;28;20179;-85
2022/06/17 01:28:16;;;;;;;5.80;2.63;;;23.10;99.90;;;;;;5038750;28;20186;-84
2022/06/17 01:30:55;;;;;;;6.03;2.80;;;23.10;99.90;;;;;;5038958;28;20195;-84
2022/06/17 01:33:31;;;;;;;4.30;2.60;;;22.90;1.00;;;;;;5038419;28;20176;-86
2022/06/17 01:36:32;;;;;;;4.03;2.40;;;22.80;1.00;;;;;;5038736;28;20211;-84
2022/06/17 01:38:59;;;;;;;4.57;2.50;;;22.80;1.00;;;;;;4939954;29;20328;-84
2022/06/17 01:41:31;;;;;;;6.13;2.63;;;22.80;1.00;;;;;;5019324;28;20540;-84
2022/06/17 01:44:00;;;;;;;4.47;2.80;;;22.90;1.00;;;;;;5044359;28;20240;-81
2022/06/17 01:46:35;;;;;;;3.83;2.70;;;22.90;99.90;;;;;;5067786;28;20171;-82
2022/06/17 01:49:08;;;;;;;5.07;2.70;;;22.90;99.90;;;;;;5049551;28;20286;-83
2022/06/17 01:51:38;;;;;;;5.07;2.73;;;22.90;1.00;;;;;;5048648;28;20176;-84
2022/06/17 01:54:10;;;;;;;3.93;2.50;;;22.80;1.00;;;;;;5049397;28;20287;-82
2022/06/17 01:56:38;;;;;;;5.03;2.30;;;22.90;99.90;;;;;;5068835;28;20211;-83
2022/06/17 01:59:06;;;;;;;4.30;2.70;;;22.90;99.90;;;;;;5049164;28;20176;-82
2022/06/17 02:01:40;;;;;;;4.23;2.30;;;22.90;99.90;;;;;;5057168;28;20167;-82
2022/06/17 02:04:22;;;;;;;4.37;2.47;;;22.80;99.90;;;;;;5070750;28;20210;-84
2022/06/17 02:07:16;;;;;;;4.43;2.50;;;22.80;1.00;;;;;;5042186;28;20183;-84
2022/06/17 02:10:20;;;;;;;4.93;2.50;;;22.80;1.00;;;;;;5063785;28;20260;-83
2022/06/17 02:12:46;;;;;;;6.57;2.37;;;22.90;99.90;;;;;;5048473;28;20178;-83
2022/06/17 02:15:13;;;;;;;4.50;2.50;;;22.80;1.00;;;;;;5060820;28;20176;-83
2022/06/17 02:17:43;;;;;;;4.10;2.50;;;22.80;1.00;;;;;;5060876;28;20187;-83
2022/06/17 02:20:13;;;;;;;3.87;2.30;;;22.70;99.90;;;;;;5059592;28;20188;-83
2022/06/17 02:22:40;;;;;;;4.90;2.30;;;22.60;1.00;;;;;;5060809;28;20184;-84
2022/06/17 02:25:15;;;;;;;4.10;2.20;;;22.30;99.90;;;;;;5073478;28;20156;-84
2022/06/17 02:27:43;;;;;;;5.80;2.63;;;22.20;1.00;;;;;;5075618;28;20161;-82
2022/06/17 02:30:12;;;;;;;4.73;2.50;;;22.20;1.00;;;;;;5058374;28;20198;-82
2022/06/17 02:32:43;;;;;;;3.67;2.23;;;22.20;1.00;;;;;;5058547;28;20231;-82
2022/06/17 02:35:14;;;;;;;5.97;2.90;;;22.30;1.00;;;;;;5059258;28;20255;-83
2022/06/17 02:37:40;;;;;;;4.87;2.60;;;22.20;1.00;;;;;;5058414;28;20201;-82
2022/06/17 02:40:30;;;;;;;5.80;2.63;;;22.10;1.00;;;;;;5043073;28;20198;-83
2022/06/17 02:43:03;;;;;;;4.90;2.40;;;22.00;42.50;;;;;;5043000;28;20174;-83
2022/06/17 02:45:33;;;;;;;5.33;2.53;;;22.00;99.90;;;;;;5044681;28;20182;-84
2022/06/17 02:48:22;;;;;;;4.90;2.53;;;22.00;15.50;;;;;;5041964;28;20643;-83
2022/06/17 02:51:33;;;;;;;8.10;2.70;;;22.00;99.90;;;;;;5042603;28;20178;-83
2022/06/17 02:54:01;;;;;;;8.40;2.60;;;22.00;1.00;;;;;;5039288;28;20176;-84
2022/06/17 02:56:33;;;;;;;3.53;2.33;;;21.80;99.90;;;;;;5040042;28;20202;-84
2022/06/17 02:59:39;;;;;;;3.87;2.30;;;21.80;1.00;;;;;;5039061;28;20266;-83
2022/06/17 03:02:39;;;;;;;5.27;2.57;;;21.80;1.00;;;;;;5056058;28;20183;-83
2022/06/17 03:05:40;;;;;;;4.13;2.40;;;21.80;1.00;;;;;;5037670;28;20163;-84
2022/06/17 03:08:29;;;;;;;4.43;2.50;;;21.70;15.30;;;;;;5032645;28;20190;-84
2022/06/17 03:10:59;;;;;;;4.10;2.40;;;21.70;99.90;;;;;;5037217;28;20182;-83
2022/06/17 03:13:29;;;;;;;4.83;2.77;;;21.70;99.90;;;;;;5035749;28;20218;-86
2022/06/17 03:15:59;;;;;;;7.07;2.70;;;21.80;1.00;;;;;;5054201;28;20201;-83
2022/06/17 03:18:28;;;;;;;5.83;2.50;;;21.80;1.00;;;;;;5036467;28;20206;-84
2022/06/17 03:20:54;;;;;;;6.57;2.73;;;21.90;99.90;;;;;;5049024;28;20166;-85
2022/06/17 03:23:33;;;;;;;6.77;2.87;;;22.10;99.90;;;;;;5051364;28;20289;-86
2022/06/17 03:26:18;;;;;;;7.73;2.87;;;22.20;1.00;;;;;;5053965;28;20176;-84
2022/06/17 03:28:51;;;;;;;4.70;2.60;;;22.20;99.90;;;;;;5072190;28;20250;-84
2022/06/17 03:31:49;;;;;;;5.87;2.47;;;22.20;1.00;;;;;;5054953;28;20189;-88
2022/06/17 03:34:20;;;;;;;6.10;2.70;;;22.10;99.90;;;;;;5051726;28;20239;-83
2022/06/17 03:36:59;;;;;;;6.53;2.90;;;22.10;1.00;;;;;;5051476;28;20687;-84
2022/06/17 03:39:57;;;;;;;5.60;3.17;;;22.10;99.90;;;;;;5052476;28;20245;-87
2022/06/17 03:42:29;;;;;;;5.77;2.73;;;22.30;99.90;;;;;;5052262;28;20721;-86
2022/06/17 03:45:09;;;;;;;6.17;2.90;;;22.30;1.00;;;;;;5051637;28;20185;-87
2022/06/17 03:47:38;;;;;;;6.93;2.90;;;22.40;23.40;;;;;;5047403;28;20623;-84
2022/06/17 03:50:08;;;;;;;7.20;2.77;;;22.30;1.00;;;;;;5040084;28;20273;-87
2022/06/17 03:52:54;;;;;;;5.70;2.77;;;22.20;99.90;;;;;;5040160;28;20176;-90
2022/06/17 03:55:22;;;;;;;7.23;2.70;;;22.10;1.00;;;;;;5038463;28;20631;-87
2022/06/17 03:57:54;;;;;;;5.73;2.40;;;22.20;99.90;;;;;;5038226;28;20181;-89
2022/06/17 04:00:37;;;;;;;5.27;2.50;;;22.20;1.00;;;;;;5038469;28;20181;-91
2022/06/17 04:03:04;;;;;;;6.07;2.23;;;22.20;1.00;;;;;;5038079;28;20181;-85
2022/06/17 04:05:31;;;;;;;5.23;2.43;;;22.10;99.90;;;;;;5038672;28;20182;-91
2022/06/17 04:07:56;;;;;;;5.10;2.50;;;22.30;99.90;;;;;;5041145;28;20183;-85
2022/06/17 04:10:27;;;;;;;5.87;3.03;;;22.20;1.00;;;;;;5058695;28;20264;-91
2022/06/17 04:12:54;;;;;;;5.07;2.30;;;22.10;1.00;;;;;;5041185;28;20183;-91
2022/06/17 04:16:08;;;;;;;6.00;2.67;;;21.90;1.00;;;;;;5041673;28;20166;-89
2022/06/17 04:18:35;;;;;;;6.57;3.10;;;21.90;1.00;;;;;;5033468;28;20238;-84
2022/06/17 04:21:12;;;;;;;6.77;2.70;;;21.90;99.90;;;;;;5040347;28;20174;-90
2022/06/17 04:23:40;;;;;;;5.93;3.13;;;21.70;99.90;;;;;;5053663;28;20160;-83
2022/06/17 04:26:16;;;;;;;5.17;2.70;;;21.80;1.00;;;;;;5070667;28;20197;-91
2022/06/17 04:28:52;;;;;;;7.37;2.50;;;21.80;99.90;;;;;;5042268;28;20175;-89
2022/06/17 04:31:25;;;;;;;5.87;2.67;;;21.80;99.90;;;;;;5042445;28;20178;-83
2022/06/17 04:34:07;;;;;;;5.57;2.53;;;21.90;99.90;;;;;;5052714;28;20207;-83
2022/06/17 04:36:59;;;;;;;6.27;2.40;;;22.10;1.00;;;;;;5042080;28;20749;-85
2022/06/17 04:39:25;;;;;;;5.03;2.83;;;22.20;1.00;;;;;;5061739;28;20161;-85
2022/06/17 04:41:55;;;;;;;12.40;3.00;;;22.20;99.90;;;;;;5043092;28;20649;-84
2022/06/17 04:44:25;;;;;;;6.57;2.97;;;22.20;99.90;;;;;;5044652;28;20183;-83
2022/06/17 04:47:01;;;;;;;6.70;2.80;;;22.30;1.00;;;;;;5067151;28;20163;-81
2022/06/17 04:49:30;;;;;;;6.03;2.83;;;22.40;1.00;;;;;;5047135;28;20185;-84
2022/06/17 04:52:11;;;;;;;6.93;2.80;;;22.50;45.30;;;;;;5065471;28;20167;-83
2022/06/17 04:54:45;;;;;;;5.50;2.70;;;22.40;99.90;;;;;;5048820;28;20178;-84
2022/06/17 04:57:19;;;;;;;8.40;3.07;;;22.30;1.00;;;;;;5043218;28;20205;-84
2022/06/17 04:59:46;;;;;;;7.23;2.87;;;22.30;1.00;;;;;;5039022;28;20168;-84
2022/06/17 05:02:24;;;;;;;5.17;2.57;;;22.40;99.90;;;;;;5038169;28;20212;-83
2022/06/17 05:04:54;;;;;;;8.60;3.40;;;22.40;1.00;;;;;;5038942;28;20219;-82
2022/06/17 05:07:20;;;;;;;8.03;2.80;;;22.30;1.00;;;;;;5056167;28;20172;-83
2022/06/17 05:09:57;;;;;;;7.30;2.90;;;22.30;1.00;;;;;;5038902;28;20176;-84
2022/06/17 05:12:43;;;;;;;10.07;3.30;;;22.30;1.00;;;;;;5045398;28;20183;-83
2022/06/17 05:15:16;;;;;;;10.27;3.17;;;22.30;99.90;;;;;;5058258;28;20182;-84
2022/06/17 05:17:42;;;;;;;8.13;2.90;;;22.30;1.00;;;;;;5040200;28;20211;-82
2022/06/17 05:20:19;;;;;;;5.37;2.73;;;22.30;99.90;;;;;;5037979;28;20178;-82
2022/06/17 05:22:54;;;;;;;9.23;3.07;;;22.40;99.90;;;;;;5056413;28;20182;-82
2022/06/17 05:25:32;;;;;;;5.87;2.80;;;22.50;99.90;;;;;;5039347;28;20262;-82
2022/06/17 05:28:15;;;;;;;9.67;2.90;;;22.70;1.00;;;;;;5039381;28;20184;-83
2022/06/17 05:30:44;;;;;;;6.80;3.03;;;22.80;99.90;;;;;;5040787;28;20622;-82
2022/06/17 05:33:14;;;;;;;5.17;2.97;;;22.70;1.00;;;;;;5040667;28;20178;-82
2022/06/17 05:35:42;;;;;;;10.13;2.83;;;22.60;1.00;;;;;;5041763;28;20207;-82
2022/06/17 05:38:07;;;;;;;6.63;2.80;;;22.40;99.90;;;;;;5037765;28;20176;-80
2022/06/17 05:40:35;;;;;;;6.07;2.80;;;22.50;1.00;;;;;;5066745;28;20175;-82
2022/06/17 05:43:00;;;;;;;7.73;2.70;;;22.70;99.90;;;;;;5072881;28;20173;-81
2022/06/17 05:45:27;;;;;;;7.87;3.00;;;22.80;99.90;;;;;;5038928;28;20180;-80
2022/06/17 05:47:53;;;;;;;10.17;3.20;;;23.00;20.30;;;;;;5043027;28;20175;-81
2022/06/17 05:50:20;;;;;;;6.90;3.20;;;23.10;99.90;;;;;;5030194;28;20172;-82
2022/06/17 05:52:59;;;;;;;8.77;3.27;;;23.30;1.00;;;;;;5050803;28;20183;-82
2022/06/17 05:55:28;;;;;;;5.83;3.00;;;23.30;1.00;;;;;;5027985;28;20229;-82
2022/06/17 05:57:57;;;;;;;6.73;3.10;;;23.30;1.00;;;;;;5045729;28;20170;-85
2022/06/17 06:00:26;;;;;;;6.90;3.00;;;23.20;1.00;;;;;;5016962;28;20179;-82
2022/06/17 06:02:57;;;;;;;6.10;2.80;;;23.20;99.90;;;;;;5016935;28;20191;-81
2022/06/17 06:05:25;;;;;;;5.20;2.80;;;23.00;1.00;;;;;;5016809;28;20173;-80
2022/06/17 06:07:51;;;;;;;6.73;3.47;;;23.10;99.90;;;;;;5016361;28;20186;-82
2022/06/17 06:10:17;;;;;;;9.13;3.80;;;23.00;99.90;;;;;;5035655;28;20576;-80
2022/06/17 06:13:03;;;;;;;7.97;3.47;;;23.00;1.00;;;;;;5052562;28;20179;-82
2022/06/17 06:15:39;;;;;;;8.33;3.37;;;23.00;99.90;;;;;;5053387;28;20619;-82
2022/06/17 06:18:06;;;;;;;8.90;4.13;;;23.10;1.00;;;;;;5036425;28;20174;-82
2022/06/17 06:20:32;;;;;;;7.40;3.20;;;23.20;1.00;;;;;;5053420;28;20225;-81
2022/06/17 06:22:58;;;;;;;10.70;3.40;;;23.20;1.00;;;;;;5035488;28;20199;-81
2022/06/17 06:25:23;;;;;;;7.70;3.10;;;23.20;1.00;;;;;;5035534;28;20196;-81
2022/06/17 06:27:50;;;;;;;7.13;4.30;;;23.20;8.20;;;;;;5053814;28;20740;-81
2022/06/17 06:30:25;;;;;;;6.07;2.90;;;23.20;99.90;;;;;;5035400;28;20190;-81
2022/06/17 06:32:54;;;;;;;6.07;3.20;;;23.20;99.90;;;;;;5052038;28;20171;-81
2022/06/17 06:35:23;;;;;;;8.30;3.67;;;23.20;1.00;;;;;;5027215;28;20206;-80
2022/06/17 06:37:49;;;;;;;7.53;3.67;;;23.30;1.90;;;;;;5036504;28;20195;-81
2022/06/17 06:40:15;;;;;;;11.07;3.67;;;23.40;1.00;;;;;;5033654;28;20184;-81
2022/06/17 06:42:41;;;;;;;7.17;4.57;;;23.60;1.00;;;;;;5035763;28;20177;-82
2022/06/17 06:45:14;;;;;;;9.90;3.80;;;23.70;1.00;;;;;;5053780;28;20641;-82
2022/06/17 06:47:40;;;;;;;6.30;3.60;;;24.00;99.90;;;;;;5055312;28;20177;-87
2022/06/17 06:50:10;;;;;;;10.20;4.03;;;24.00;1.00;;;;;;5037632;28;20172;-85
2022/06/17 06:52:35;;;;;;;10.70;4.00;;;24.00;99.90;;;;;;5037903;28;20207;-85
2022/06/17 06:55:01;;;;;;;7.93;3.53;;;24.20;1.00;;;;;;5039018;28;20393;-85
2022/06/17 06:57:27;;;;;;;10.33;5.00;;;24.30;99.90;;;;;;5040181;28;20212;-88
2022/06/17 06:59:53;;;;;;;9.07;3.83;;;24.40;1.00;;;;;;5049829;28;20165;-89
2022/06/17 07:02:19;;;;;;;7.73;4.03;;;24.30;99.90;;;;;;5052740;28;20173;-88
2022/06/17 07:04:46;;;;;;;6.70;3.93;;;24.40;1.00;;;;;;5053768;28;20211;-87
2022/06/17 07:07:12;;;;;;;8.70;4.40;;;24.40;99.90;;;;;;5035797;28;20200;-88
2022/06/17 07:09:38;;;;;;;10.83;4.37;;;24.20;1.00;;;;;;5038868;28;20189;-86
2022/06/17 07:12:07;;;;;;;9.90;4.63;;;24.40;1.00;;;;;;5038166;28;20181;-88
2022/06/17 07:14:33;;;;;;;9.03;4.37;;;24.50;99.90;;;;;;5036188;28;20220;-84
2022/06/17 07:17:00;;;;;;;12.43;4.73;;;24.40;99.90;;;;;;5023457;28;20285;-86
2022/06/17 07:19:26;;;;;;;10.00;4.40;;;24.30;99.90;;;;;;5022681;28;20166;-85
2022/06/17 07:21:52;;;;;;;10.27;5.20;;;24.30;1.00;;;;;;5020109;28;20620;-85
2022/06/17 07:24:18;;;;;;;7.70;4.30;;;24.20;1.00;;;;;;5034795;28;20162;-85
2022/06/17 07:27:37;;;;;;;9.53;4.77;;;24.20;1.00;;;;;;5017254;28;20169;-85
2022/06/17 07:30:03;;;;;;;10.57;5.03;;;24.40;1.00;;;;;;5017398;28;20285;-86
2022/06/17 07:32:31;;;;;;;15.50;5.20;;;24.50;99.90;;;;;;5017413;28;20264;-86
2022/06/17 07:35:06;;;;;;;7.23;4.40;;;24.70;99.90;;;;;;5017061;28;20296;-85
2022/06/17 07:40:16;;;;;;;8.63;4.10;;;24.80;1.00;;;;;;5046169;28;20202;-84
2022/06/17 07:42:43;;;;;;;10.33;4.50;;;25.00;1.00;;;;;;5033925;28;20177;-84
2022/06/17 07:45:17;;;;;;;9.70;4.40;;;25.10;99.90;;;;;;5035814;28;20175;-83
2022/06/17 07:47:44;;;;;;;13.70;4.13;;;25.30;99.90;;;;;;5025887;28;20341;-83
2022/06/17 07:50:15;;;;;;;8.27;4.17;;;25.30;1.00;;;;;;5019149;28;20166;-84
2022/06/17 07:52:44;;;;;;;10.63;3.83;;;25.40;1.00;;;;;;5019491;28;20219;-86
2022/06/17 07:55:12;;;;;;;8.40;3.90;;;25.50;1.00;;;;;;5020909;28;20170;-87
2022/06/17 07:57:38;;;;;;;10.87;3.57;;;25.60;1.00;;;;;;5023560;28;20677;-86
2022/06/17 08:00:08;;;;;;;6.43;2.97;;;25.40;1.00;;;;;;5026998;28;20272;-87
2022/06/17 08:02:33;;;;;;;8.83;3.40;;;25.40;99.90;;;;;;5034666;28;20212;-88
2022/06/17 08:04:59;;;;;;;8.17;3.63;;;25.50;1.00;;;;;;5031615;28;20181;-88
2022/06/17 08:07:25;;;;;;;10.53;4.33;;;25.50;1.00;;;;;;5044516;28;20215;-87
2022/06/17 08:09:50;;;;;;;8.17;3.17;;;25.40;1.00;;;;;;5051779;28;20165;-85
2022/06/17 08:12:16;;;;;;;7.77;3.30;;;25.60;1.00;;;;;;5054474;28;20178;-85
2022/06/17 08:14:46;;;;;;;6.53;3.10;;;25.60;1.00;;;;;;5055942;28;20242;-86
2022/06/17 08:17:13;;;;;;;6.23;2.60;;;25.80;99.90;;;;;;5054914;28;20213;-85
2022/06/17 08:19:40;;;;;;;6.53;2.63;;;25.80;99.90;;;;;;5069228;28;20172;-86
2022/06/17 08:22:06;;;;;;;7.00;3.23;;;25.90;99.90;;;;;;5066888;28;20204;-85
2022/06/17 08:24:32;;;;;;;4.63;2.60;;;25.80;99.90;;;;;;5048418;28;20180;-84
2022/06/17 08:26:58;;;;;;;7.20;2.60;;;25.80;99.90;;;;;;5051876;28;20173;-84
2022/06/17 08:29:26;;;;;;;6.07;2.77;;;26.00;99.90;;;;;;5067840;28;20240;-84
2022/06/17 08:31:53;;;;;;;6.77;2.87;;;26.30;99.90;;;;;;5049820;28;20196;-84
2022/06/17 08:34:19;;;;;;;5.70;3.00;;;26.30;99.90;;;;;;5067419;28;20185;-84
2022/06/17 08:36:45;;;;;;;9.13;3.20;;;26.50;99.90;;;;;;5043838;28;20215;-83
2022/06/17 08:39:14;;;;;;;8.90;2.80;;;26.50;99.90;;;;;;5065545;28;20165;-86
2022/06/17 08:42:24;;;;;;;8.10;3.30;;;26.60;99.90;;;;;;5058889;28;20188;-84
2022/06/17 08:45:14;;;;;;;5.03;2.30;;;26.70;1.00;;;;;;5050194;28;20227;-84
2022/06/17 08:47:52;;;;;;;9.13;2.60;;;26.60;1.00;;;;;;5048435;28;20165;-84
2022/06/17 08:50:39;;;;;;;7.67;2.83;;;26.50;47.80;;;;;;5046186;28;20202;-84
2022/06/17 08:53:21;;;;;;;5.83;2.50;;;26.40;99.90;;;;;;5050689;28;20169;-83
2022/06/17 08:56:05;;;;;;;7.10;2.47;;;26.50;1.00;;;;;;5043875;28;20174;-84
2022/06/17 08:59:01;;;;;;;6.10;2.83;;;26.50;1.00;;;;;;5049167;28;20215;-84
2022/06/17 09:01:35;;;;;;;5.53;2.40;;;26.60;55.30;;;;;;5041452;28;20173;-85
2022/06/17 09:04:13;;;;;;;5.27;2.50;;;26.50;20.30;;;;;;5040872;28;20189;-84
2022/06/17 09:07:13;;;;;;;5.90;2.87;;;26.60;24.70;;;;;;5050127;28;20177;-84
2022/06/17 09:10:01;;;;;;;4.73;2.43;;;26.80;1.00;;;;;;5023469;28;20268;-84
2022/06/17 09:13:00;;;;;;;6.87;2.53;;;27.00;1.00;;;;;;5043011;28;20173;-85
2022/06/17 09:15:46;;;;;;;8.97;2.53;;;26.90;1.00;;;;;;5038201;28;20180;-85
2022/06/17 09:18:37;;;;;;;6.07;2.40;;;27.00;1.00;;;;;;5038268;28;20652;-84
2022/06/17 09:21:22;;;;;;;5.57;2.57;;;27.10;1.00;;;;;;5041301;28;20178;-86
2022/06/17 09:23:52;;;;;;;10.07;2.50;;;27.30;1.00;;;;;;5056755;28;20185;-84
2022/06/17 09:26:28;;;;;;;7.65;2.28;;;27.60;1.00;;;;;;5055351;28;20176;-86
2022/06/17 09:29:06;;;;;;;6.97;2.20;;;27.80;1.00;;;;;;5038304;28;20177;-85
2022/06/17 09:31:41;;;;;;;4.77;2.30;;;27.50;1.00;;;;;;5038218;28;20241;-84
2022/06/17 09:34:10;;;;;;;6.83;2.30;;;27.30;1.00;;;;;;5038214;28;20565;-87
2022/06/17 09:36:45;;;;;;;5.77;2.23;;;27.40;1.00;;;;;;5036851;28;20688;-87
2022/06/17 09:39:23;;;;;;;7.28;2.28;;;27.50;1.00;;;;;;5037138;28;20230;-85
2022/06/17 09:41:56;;;;;;;4.27;2.00;;;27.60;1.00;;;;;;5036497;28;20198;-85
2022/06/17 09:44:32;;;;;;;5.63;2.10;;;27.60;99.90;;;;;;5037366;28;20628;-86
2022/06/17 09:47:24;;;;;;;6.27;2.10;;;27.50;99.90;;;;;;5054652;28;20277;-85
2022/06/17 09:49:56;;;;;;;5.17;2.27;;;27.50;99.90;;;;;;5041281;28;20252;-85
2022/06/17 09:52:30;;;;;;;6.77;2.10;;;27.50;99.90;;;;;;5043233;28;20186;-86
2022/06/17 09:55:20;;;;;;;5.97;2.37;;;27.30;99.90;;;;;;5042215;28;20593;-85
2022/06/17 09:57:56;;;;;;;5.97;2.50;;;27.50;99.90;;;;;;5055057;28;20209;-86
2022/06/17 10:00:28;;;;;;;4.23;2.00;;;27.70;99.90;;;;;;5037420;28;20173;-86
2022/06/17 10:03:14;;;;;;;7.05;1.80;;;27.80;99.90;;;;;;5036691;28;20172;-85
2022/06/17 10:06:03;;;;;;;3.45;1.83;;;28.00;99.90;;;;;;5036211;28;20180;-85
2022/06/17 10:08:53;;;;;;;6.13;2.30;;;28.20;99.90;;;;;;5036792;28;20513;-86
2022/06/17 10:11:34;;;;;;;7.00;1.88;;;28.30;99.90;;;;;;5056185;28;20265;-86
2022/06/17 10:14:25;;;;;;;5.13;1.92;;;28.30;99.90;;;;;;5038174;28;20169;-87
2022/06/17 10:20:32;;;;;;;8.30;2.25;;;28.50;99.90;;;;;;5055502;28;20187;-86
2022/06/17 10:23:11;;;;;;;7.07;2.40;;;28.50;99.90;;;;;;5037316;28;20172;-87
2022/06/17 10:26:00;;;;;;;8.48;2.22;;;28.30;99.90;;;;;;5037402;28;20667;-87
2022/06/17 10:28:45;;;;;;;6.72;2.15;;;28.40;99.90;;;;;;5038367;28;20163;-90
2022/06/17 10:34:46;;;;;;;10.80;3.38;;;28.70;99.90;;;;;;5066670;28;20207;-85
2022/06/17 10:37:15;;;;;;;6.05;2.30;;;28.60;99.90;;;;;;5073341;28;20279;-84
2022/06/17 10:39:47;;;;;;;7.57;2.08;;;28.70;99.90;;;;;;5038678;28;20169;-86
2022/06/17 10:42:19;;;;;;;7.45;2.80;;;28.70;99.90;;;;;;5037973;28;20177;-88
2022/06/17 10:44:50;;;;;;;4.93;2.30;;;28.80;99.90;;;;;;5036580;28;20180;-88
2022/06/17 10:47:46;;;;;;;5.55;1.92;;;29.10;99.90;;;;;;5038820;28;20598;-88
2022/06/17 10:50:18;;;;;;;4.82;2.47;;;29.30;99.90;;;;;;5040474;28;20165;-89
2022/06/17 10:53:08;;;;;;;3.85;2.00;;;29.10;99.90;;;;;;5040522;28;20696;-87
2022/06/17 10:55:38;;;;;;;5.72;2.30;;;29.00;99.90;;;;;;5036607;28;20180;-86
2022/06/17 10:58:24;;;;;;;3.88;2.17;;;29.10;99.90;;;;;;5075209;28;20180;-86
2022/06/17 11:00:59;;;;;;;3.28;1.98;;;29.40;99.90;;;;;;5043918;28;20177;-85
2022/06/17 11:03:39;;;;;;;4.60;2.50;;;29.60;99.90;;;;;;5038846;28;20172;-85
2022/06/17 11:06:15;;;;;;;5.97;2.10;;;29.80;99.90;;;;;;5056163;28;20469;-83
2022/06/17 11:08:59;;;;;;;5.38;1.80;;;29.80;92.80;;;;;;5037845;28;20184;-86
2022/06/17 11:14:54;;;;;;;5.05;1.83;;;29.30;99.90;;;;;;5056913;28;20276;-85
2022/06/17 11:17:34;;;;;;;5.10;2.28;;;29.40;99.90;;;;;;5041749;28;20216;-85
2022/06/17 11:20:15;;;;;;;7.70;2.22;;;29.70;99.90;;;;;;5041569;28;20315;-85
2022/06/17 11:22:55;;;;;;;6.20;2.10;;;29.70;99.90;;;;;;5043027;28;20177;-85
2022/06/17 11:25:34;;;;;;;3.13;1.83;;;29.70;99.90;;;;;;5042291;28;20175;-86
2022/06/17 11:28:24;;;;;;;6.90;2.45;;;29.50;99.90;;;;;;5041092;28;20173;-87
2022/06/17 11:30:56;;;;;;;4.75;2.00;;;29.50;99.90;;;;;;5041035;28;20212;-85
2022/06/17 11:33:52;;;;;;;4.35;1.80;;;29.50;99.90;;;;;;5040889;28;20176;-86
2022/06/17 11:36:28;;;;;;;4.03;1.85;;;29.60;99.90;;;;;;5040445;28;20200;-86
2022/06/17 11:38:57;;;;;;;6.50;1.88;;;29.70;99.90;;;;;;5038223;28;20175;-87
2022/06/17 11:41:30;;;;;;;3.28;1.50;;;29.70;69.10;;;;;;5038920;28;20177;-86
2022/06/17 11:44:10;;;;;;;7.28;1.70;;;29.80;37.90;;;;;;5039079;28;20153;-86
2022/06/17 11:46:45;;;;;;;7.78;2.08;;;29.70;55.80;;;;;;5038892;28;20184;-87
2022/06/17 11:49:19;;;;;;;4.60;1.70;;;29.70;74.40;;;;;;5038379;28;20222;-87
2022/06/17 11:51:55;;;;;;;3.65;1.45;;;29.80;99.90;;;;;;5038670;28;20549;-85
2022/06/17 11:54:30;;;;;;;4.93;1.80;;;29.80;59.80;;;;;;5037982;28;20569;-86
2022/06/17 11:56:57;;;;;;;5.03;2.30;;;29.60;72.20;;;;;;5038046;28;20245;-86
2022/06/17 11:59:30;;;;;;;7.00;2.10;;;29.50;90.20;;;;;;5038840;28;20180;-86
2022/06/17 12:01:56;;;;;;;5.97;2.10;;;29.70;92.40;;;;;;5038440;28;20164;-86
2022/06/17 12:04:55;;;;;;;3.88;1.83;;;30.00;70.00;;;;;;5038668;28;20177;-85
2022/06/17 12:07:35;;;;;;;3.47;1.38;;;30.00;55.00;;;;;;5038152;28;20176;-86
2022/06/17 12:10:30;;;;;;;5.85;2.00;;;29.90;56.30;;;;;;5038032;28;20248;-85
2022/06/17 12:13:09;;;;;;;5.53;2.10;;;29.90;41.80;;;;;;5038109;28;20267;-86
2022/06/17 12:15:43;;;;;;;5.80;2.10;;;29.70;56.90;;;;;;5036139;28;20542;-85
2022/06/17 12:18:18;;;;;;;3.67;1.70;;;29.70;60.00;;;;;;5038378;28;20181;-85
2022/06/17 12:21:19;;;;;;;5.82;2.00;;;29.60;54.60;;;;;;5037870;28;20169;-84
2022/06/17 12:23:50;;;;;;;4.80;1.73;;;29.50;61.60;;;;;;5000846;28;20187;-84
2022/06/17 12:26:44;;;;;;;4.97;1.92;;;29.50;83.20;;;;;;5036414;28;20165;-85
2022/06/17 12:29:17;;;;;;;3.08;1.60;;;29.40;91.30;;;;;;5055119;28;20253;-84
2022/06/17 12:31:59;;;;;;;4.38;1.75;;;29.50;47.70;;;;;;5057170;28;20187;-85
2022/06/17 12:34:48;;;;;;;4.15;1.50;;;29.60;50.60;;;;;;5058225;28;20208;-86
2022/06/17 12:37:32;;;;;;;7.40;2.40;;;29.80;50.30;;;;;;5055812;28;20303;-86
2022/06/17 12:40:15;;;;;;;5.65;1.55;;;30.00;37.00;;;;;;5056991;28;20161;-86
2022/06/17 12:42:51;;;;;;;4.88;1.50;;;29.90;37.50;;;;;;5054427;28;20169;-86
2022/06/17 12:45:20;;;;;;;2.95;1.75;;;30.10;25.50;;;;;;5062373;28;20175;-87
2022/06/17 12:47:57;;;;;;;6.40;1.70;;;30.20;26.20;;;;;;5045543;28;20248;-86
2022/06/17 12:53:55;;;;;;;7.78;2.05;;;30.00;38.30;;;;;;5049942;28;20235;-88
2022/06/17 12:59:55;;;;;;;4.47;1.73;;;29.80;39.60;;;;;;5035985;28;20197;-86
2022/06/17 13:02:28;;;;;;;6.05;1.73;;;30.00;33.50;;;;;;5050894;28;20263;-86
2022/06/17 13:05:01;;;;;;;3.05;2.08;;;30.20;48.80;;;;;;5036535;28;20177;-88
2022/06/17 13:07:32;;;;;;;4.88;1.92;;;30.30;42.40;;;;;;5036142;28;20181;-87
2022/06/17 13:10:41;;;;;;;8.52;1.92;;;30.40;25.90;;;;;;5036638;28;20172;-86
2022/06/17 13:13:19;;;;;;;5.40;1.95;;;30.40;40.50;;;;;;5036815;28;20169;-87
2022/06/17 13:15:53;;;;;;;6.68;1.80;;;30.60;28.40;;;;;;5038870;28;20191;-91
2022/06/17 13:19:01;;;;;;;5.22;1.90;;;30.60;22.20;;;;;;5046396;28;20271;-89
2022/06/17 13:21:52;;;;;;;6.15;2.00;;;30.40;28.80;;;;;;5040555;28;20550;-89
2022/06/17 13:24:33;;;;;;;7.97;2.10;;;30.30;60.30;;;;;;5040104;28;20184;-90
2022/06/17 13:27:08;;;;;;;3.38;2.00;;;30.30;63.70;;;;;;5051317;28;20192;-86
2022/06/17 13:29:59;;;;;;;4.68;2.10;;;30.40;45.50;;;;;;5058946;28;20214;-85
2022/06/17 13:32:35;;;;;;;3.20;1.75;;;30.40;49.70;;;;;;5051135;28;20177;-87
2022/06/17 13:35:34;;;;;;;6.47;2.00;;;30.30;60.40;;;;;;5047459;28;20656;-87
2022/06/17 13:38:15;;;;;;;8.90;1.65;;;30.60;53.30;;;;;;5018676;28;20665;-86
2022/06/17 13:40:50;;;;;;;6.25;2.08;;;30.80;27.00;;;;;;5017860;28;20598;-86
2022/06/17 13:43:23;;;;;;;6.88;1.75;;;31.00;24.90;;;;;;5018491;28;20252;-86
2022/06/17 13:45:59;;;;;;;3.70;1.70;;;30.60;22.40;;;;;;5028408;28;20196;-85
2022/06/17 13:48:51;;;;;;;3.85;1.73;;;30.40;36.80;;;;;;5037048;28;20177;-86
2022/06/17 13:51:48;;;;;;;4.03;1.60;;;30.60;39.60;;;;;;5037174;28;20169;-85
2022/06/17 13:54:56;;;;;;;4.53;1.63;;;30.60;42.30;;;;;;5024097;28;20205;-86